sensor_id;sensor_type;location;lat;lon;timestamp;pressure;altitude;pressure_sealevel;temperature;humidity
18527;BME280;9393;42.158;24.748;2023-02-28T00:01:52;100082.78;;;13.75;64.83
18527;BME280;9393;42.158;24.748;2023-02-28T00:04:56;100084.41;;;13.76;64.83
18527;BME280;9393;42.158;24.748;2023-02-28T00:08:05;100090.06;;;13.81;64.91
18527;BME280;9393;42.158;24.748;2023-02-28T00:11:11;100097.00;;;14.08;63.92
18527;BME280;9393;42.158;24.748;2023-02-28T00:14:15;100097.22;;;14.14;63.56
18527;BME280;9393;42.158;24.748;2023-02-28T00:17:20;100094.91;;;14.11;63.65
18527;BME280;9393;42.158;24.748;2023-02-28T00:20:24;100093.72;;;14.24;63.31
18527;BME280;9393;42.158;24.748;2023-02-28T00:23:29;100095.00;;;14.20;63.22
18527;BME280;9393;42.158;24.748;2023-02-28T00:26:33;100089.38;;;14.14;63.62
18527;BME280;9393;42.158;24.748;2023-02-28T00:29:37;100087.22;;;13.92;64.38
18527;BME280;9393;42.158;24.748;2023-02-28T00:32:43;100085.84;;;13.88;64.43
18527;BME280;9393;42.158;24.748;2023-02-28T00:35:47;100092.50;;;14.00;64.00
18527;BME280;9393;42.158;24.748;2023-02-28T00:38:51;100079.47;;;13.91;64.31
18527;BME280;9393;42.158;24.748;2023-02-28T00:41:54;100074.84;;;13.67;65.46
18527;BME280;9393;42.158;24.748;2023-02-28T00:44:58;100070.44;;;14.03;64.08
18527;BME280;9393;42.158;24.748;2023-02-28T00:48:04;100077.38;;;14.12;63.81
18527;BME280;9393;42.158;24.748;2023-02-28T00:51:08;100080.44;;;14.25;63.16
18527;BME280;9393;42.158;24.748;2023-02-28T00:54:12;100084.09;;;14.32;63.05
18527;BME280;9393;42.158;24.748;2023-02-28T00:57:16;100080.63;;;14.06;63.68
18527;BME280;9393;42.158;24.748;2023-02-28T01:00:20;100083.22;;;14.24;63.25
18527;BME280;9393;42.158;24.748;2023-02-28T01:03:26;100088.53;;;14.32;62.99
18527;BME280;9393;42.158;24.748;2023-02-28T01:06:30;100086.31;;;14.19;63.54
18527;BME280;9393;42.158;24.748;2023-02-28T01:09:34;100101.88;;;14.38;62.95
18527;BME280;9393;42.158;24.748;2023-02-28T01:12:39;100110.50;;;13.95;64.55
18527;BME280;9393;42.158;24.748;2023-02-28T01:15:46;100110.03;;;14.00;64.24
18527;BME280;9393;42.158;24.748;2023-02-28T01:18:54;100117.16;;;14.07;64.08
18527;BME280;9393;42.158;24.748;2023-02-28T01:22:00;100118.66;;;14.28;63.50
18527;BME280;9393;42.158;24.748;2023-02-28T01:25:05;100124.38;;;14.05;64.42
18527;BME280;9393;42.158;24.748;2023-02-28T01:28:09;100115.81;;;14.21;63.35
18527;BME280;9393;42.158;24.748;2023-02-28T01:31:13;100117.38;;;14.14;63.47
18527;BME280;9393;42.158;24.748;2023-02-28T01:34:18;100107.38;;;14.27;63.17
18527;BME280;9393;42.158;24.748;2023-02-28T01:37:22;100108.34;;;14.44;62.35
18527;BME280;9393;42.158;24.748;2023-02-28T01:40:26;100126.47;;;14.20;63.44
18527;BME280;9393;42.158;24.748;2023-02-28T01:43:31;100136.88;;;14.11;63.47
18527;BME280;9393;42.158;24.748;2023-02-28T01:46:35;100143.41;;;14.07;63.84
18527;BME280;9393;42.158;24.748;2023-02-28T01:49:41;100144.00;;;14.01;64.01
18527;BME280;9393;42.158;24.748;2023-02-28T01:52:48;100153.16;;;13.70;65.40
18527;BME280;9393;42.158;24.748;2023-02-28T01:55:53;100163.06;;;13.76;65.23
18527;BME280;9393;42.158;24.748;2023-02-28T01:58:57;100156.84;;;13.77;65.12
18527;BME280;9393;42.158;24.748;2023-02-28T02:02:01;100155.72;;;13.80;65.23
18527;BME280;9393;42.158;24.748;2023-02-28T02:05:10;100172.28;;;13.80;65.06
18527;BME280;9393;42.158;24.748;2023-02-28T02:08:17;100179.13;;;13.63;65.77
18527;BME280;9393;42.158;24.748;2023-02-28T02:11:24;100172.03;;;13.46;66.54
18527;BME280;9393;42.158;24.748;2023-02-28T02:14:40;100168.69;;;13.17;67.29
18527;BME280;9393;42.158;24.748;2023-02-28T02:17:50;100171.81;;;13.40;67.22
18527;BME280;9393;42.158;24.748;2023-02-28T02:21:18;100176.69;;;13.52;67.97
18527;BME280;9393;42.158;24.748;2023-02-28T02:24:56;100175.03;;;13.61;68.54
18527;BME280;9393;42.158;24.748;2023-02-28T02:32:12;100185.69;;;13.50;73.12
18527;BME280;9393;42.158;24.748;2023-02-28T02:35:25;100188.06;;;12.78;78.24
18527;BME280;9393;42.158;24.748;2023-02-28T02:38:35;100187.28;;;12.58;79.70
18527;BME280;9393;42.158;24.748;2023-02-28T02:41:47;100193.19;;;12.60;79.54
18527;BME280;9393;42.158;24.748;2023-02-28T02:44:56;100189.47;;;12.53;79.65
18527;BME280;9393;42.158;24.748;2023-02-28T02:48:04;100190.50;;;12.98;76.81
18527;BME280;9393;42.158;24.748;2023-02-28T02:51:14;100198.22;;;12.90;76.50
18527;BME280;9393;42.158;24.748;2023-02-28T02:54:21;100211.75;;;12.76;76.90
18527;BME280;9393;42.158;24.748;2023-02-28T02:57:30;100213.16;;;12.51;77.35
18527;BME280;9393;42.158;24.748;2023-02-28T03:00:38;100216.31;;;12.36;77.54
18527;BME280;9393;42.158;24.748;2023-02-28T03:03:45;100220.44;;;12.29;77.74
18527;BME280;9393;42.158;24.748;2023-02-28T03:06:52;100225.81;;;12.37;77.44
18527;BME280;9393;42.158;24.748;2023-02-28T03:09:57;100235.44;;;12.36;77.30
18527;BME280;9393;42.158;24.748;2023-02-28T03:13:13;100235.00;;;12.12;78.64
18527;BME280;9393;42.158;24.748;2023-02-28T03:16:40;100241.59;;;12.06;78.99
18527;BME280;9393;42.158;24.748;2023-02-28T03:19:53;100246.03;;;12.35;78.21
18527;BME280;9393;42.158;24.748;2023-02-28T03:23:13;100245.47;;;12.22;79.58
18527;BME280;9393;42.158;24.748;2023-02-28T03:26:23;100250.44;;;12.34;78.99
18527;BME280;9393;42.158;24.748;2023-02-28T03:29:34;100262.16;;;12.40;79.02
18527;BME280;9393;42.158;24.748;2023-02-28T03:32:42;100252.25;;;12.34;79.42
18527;BME280;9393;42.158;24.748;2023-02-28T03:35:51;100248.31;;;11.99;81.33
18527;BME280;9393;42.158;24.748;2023-02-28T03:38:59;100250.00;;;12.10;81.18
18527;BME280;9393;42.158;24.748;2023-02-28T03:42:08;100248.50;;;11.77;82.68
18527;BME280;9393;42.158;24.748;2023-02-28T03:45:16;100250.59;;;11.83;82.33
18527;BME280;9393;42.158;24.748;2023-02-28T03:48:25;100256.41;;;11.66;83.47
18527;BME280;9393;42.158;24.748;2023-02-28T03:51:32;100266.13;;;11.75;82.76
18527;BME280;9393;42.158;24.748;2023-02-28T03:54:42;100261.78;;;11.64;83.60
18527;BME280;9393;42.158;24.748;2023-02-28T03:57:55;100271.50;;;11.83;82.53
18527;BME280;9393;42.158;24.748;2023-02-28T04:01:04;100270.59;;;12.03;81.91
18527;BME280;9393;42.158;24.748;2023-02-28T04:04:11;100278.22;;;12.16;81.10
18527;BME280;9393;42.158;24.748;2023-02-28T04:07:16;100282.81;;;11.93;82.16
18527;BME280;9393;42.158;24.748;2023-02-28T04:10:21;100278.44;;;12.03;81.69
18527;BME280;9393;42.158;24.748;2023-02-28T04:13:25;100291.69;;;11.72;82.87
18527;BME280;9393;42.158;24.748;2023-02-28T04:16:29;100296.03;;;11.41;84.23
18527;BME280;9393;42.158;24.748;2023-02-28T04:19:36;100301.81;;;11.44;84.07
18527;BME280;9393;42.158;24.748;2023-02-28T04:22:40;100308.03;;;11.53;83.19
18527;BME280;9393;42.158;24.748;2023-02-28T04:25:45;100306.22;;;11.44;83.75
18527;BME280;9393;42.158;24.748;2023-02-28T04:28:49;100301.47;;;11.38;83.83
18527;BME280;9393;42.158;24.748;2023-02-28T04:31:53;100295.06;;;11.42;83.67
18527;BME280;9393;42.158;24.748;2023-02-28T04:35:00;100301.00;;;11.23;84.78
18527;BME280;9393;42.158;24.748;2023-02-28T04:38:04;100297.28;;;11.26;84.48
18527;BME280;9393;42.158;24.748;2023-02-28T04:41:09;100300.72;;;11.47;83.11
18527;BME280;9393;42.158;24.748;2023-02-28T04:44:14;100301.47;;;11.58;82.09
18527;BME280;9393;42.158;24.748;2023-02-28T04:47:18;100302.19;;;11.60;81.94
18527;BME280;9393;42.158;24.748;2023-02-28T04:50:22;100305.00;;;11.48;81.58
18527;BME280;9393;42.158;24.748;2023-02-28T04:53:25;100302.72;;;11.34;82.63
18527;BME280;9393;42.158;24.748;2023-02-28T04:56:32;100298.50;;;11.42;82.06
18527;BME280;9393;42.158;24.748;2023-02-28T04:59:35;100297.97;;;11.28;82.84
18527;BME280;9393;42.158;24.748;2023-02-28T05:02:39;100312.47;;;11.00;84.46
18527;BME280;9393;42.158;24.748;2023-02-28T05:05:43;100322.50;;;11.15;83.75
18527;BME280;9393;42.158;24.748;2023-02-28T05:08:47;100339.13;;;11.35;82.35
18527;BME280;9393;42.158;24.748;2023-02-28T05:11:52;100339.97;;;11.56;81.59
18527;BME280;9393;42.158;24.748;2023-02-28T05:14:56;100339.69;;;11.18;83.39
18527;BME280;9393;42.158;24.748;2023-02-28T05:17:59;100328.00;;;11.33;82.58
18527;BME280;9393;42.158;24.748;2023-02-28T05:21:03;100339.84;;;11.37;82.41
18527;BME280;9393;42.158;24.748;2023-02-28T05:24:09;100336.09;;;11.30;82.31
18527;BME280;9393;42.158;24.748;2023-02-28T05:27:15;100340.97;;;11.03;83.44
18527;BME280;9393;42.158;24.748;2023-02-28T05:30:19;100343.09;;;10.66;85.34
18527;BME280;9393;42.158;24.748;2023-02-28T05:33:23;100345.09;;;10.74;84.79
18527;BME280;9393;42.158;24.748;2023-02-28T05:36:27;100360.13;;;10.81;84.62
18527;BME280;9393;42.158;24.748;2023-02-28T05:39:30;100362.59;;;10.83;84.33
18527;BME280;9393;42.158;24.748;2023-02-28T05:42:35;100364.81;;;10.98;83.46
18527;BME280;9393;42.158;24.748;2023-02-28T05:45:39;100370.56;;;10.81;84.00
18527;BME280;9393;42.158;24.748;2023-02-28T05:48:47;100378.41;;;10.81;84.29
18527;BME280;9393;42.158;24.748;2023-02-28T05:51:51;100368.41;;;11.18;82.20
18527;BME280;9393;42.158;24.748;2023-02-28T05:54:54;100377.69;;;11.11;82.92
18527;BME280;9393;42.158;24.748;2023-02-28T05:58:00;100375.53;;;10.84;83.55
18527;BME280;9393;42.158;24.748;2023-02-28T06:01:19;100377.34;;;10.73;84.41
18527;BME280;9393;42.158;24.748;2023-02-28T06:04:25;100383.25;;;10.86;83.67
18527;BME280;9393;42.158;24.748;2023-02-28T06:07:33;100387.25;;;10.47;85.39
18527;BME280;9393;42.158;24.748;2023-02-28T06:10:36;100394.56;;;10.75;84.42
18527;BME280;9393;42.158;24.748;2023-02-28T06:13:42;100397.63;;;10.69;84.69
18527;BME280;9393;42.158;24.748;2023-02-28T06:16:46;100396.31;;;10.86;83.86
18527;BME280;9393;42.158;24.748;2023-02-28T06:19:51;100400.66;;;10.96;83.18
18527;BME280;9393;42.158;24.748;2023-02-28T06:22:55;100394.28;;;10.89;83.26
18527;BME280;9393;42.158;24.748;2023-02-28T06:26:00;100388.81;;;10.92;83.75
18527;BME280;9393;42.158;24.748;2023-02-28T06:29:06;100396.44;;;10.73;84.39
18527;BME280;9393;42.158;24.748;2023-02-28T06:32:09;100400.69;;;10.85;83.93
18527;BME280;9393;42.158;24.748;2023-02-28T06:35:13;100396.66;;;10.81;83.91
18527;BME280;9393;42.158;24.748;2023-02-28T06:38:18;100400.88;;;11.04;82.99
18527;BME280;9393;42.158;24.748;2023-02-28T06:41:23;100400.63;;;10.64;84.63
18527;BME280;9393;42.158;24.748;2023-02-28T06:44:29;100409.72;;;10.81;84.16
18527;BME280;9393;42.158;24.748;2023-02-28T06:47:39;100403.16;;;10.87;83.46
18527;BME280;9393;42.158;24.748;2023-02-28T06:50:43;100407.00;;;11.46;81.07
18527;BME280;9393;42.158;24.748;2023-02-28T06:53:47;100413.16;;;11.45;80.60
18527;BME280;9393;42.158;24.748;2023-02-28T06:56:51;100410.22;;;11.07;82.37
18527;BME280;9393;42.158;24.748;2023-02-28T06:59:58;100419.34;;;11.12;82.29
18527;BME280;9393;42.158;24.748;2023-02-28T07:03:02;100425.66;;;11.10;82.14
18527;BME280;9393;42.158;24.748;2023-02-28T07:06:06;100430.34;;;10.84;83.56
18527;BME280;9393;42.158;24.748;2023-02-28T07:09:10;100431.59;;;11.01;83.32
18527;BME280;9393;42.158;24.748;2023-02-28T07:12:14;100418.00;;;10.86;84.07
18527;BME280;9393;42.158;24.748;2023-02-28T07:15:19;100411.22;;;10.95;83.09
18527;BME280;9393;42.158;24.748;2023-02-28T07:18:23;100426.97;;;11.36;81.47
18527;BME280;9393;42.158;24.748;2023-02-28T07:21:27;100422.34;;;11.72;79.99
18527;BME280;9393;42.158;24.748;2023-02-28T07:24:31;100424.09;;;11.92;79.00
18527;BME280;9393;42.158;24.748;2023-02-28T07:27:35;100427.47;;;12.03;77.80
18527;BME280;9393;42.158;24.748;2023-02-28T07:30:41;100437.88;;;11.09;81.88
18527;BME280;9393;42.158;24.748;2023-02-28T07:33:44;100435.94;;;11.54;80.05
18527;BME280;9393;42.158;24.748;2023-02-28T07:36:48;100448.16;;;11.54;80.05
18527;BME280;9393;42.158;24.748;2023-02-28T07:39:55;100446.38;;;11.23;81.19
18527;BME280;9393;42.158;24.748;2023-02-28T07:42:59;100445.81;;;11.19;80.85
18527;BME280;9393;42.158;24.748;2023-02-28T07:46:07;100442.13;;;11.10;82.25
18527;BME280;9393;42.158;24.748;2023-02-28T07:49:11;100444.63;;;11.12;81.66
18527;BME280;9393;42.158;24.748;2023-02-28T07:52:15;100440.97;;;11.67;79.68
18527;BME280;9393;42.158;24.748;2023-02-28T07:55:19;100435.69;;;11.57;79.48
18527;BME280;9393;42.158;24.748;2023-02-28T07:58:23;100440.44;;;11.84;78.88
18527;BME280;9393;42.158;24.748;2023-02-28T08:01:29;100448.13;;;11.65;79.30
18527;BME280;9393;42.158;24.748;2023-02-28T08:04:33;100442.16;;;11.63;79.39
18527;BME280;9393;42.158;24.748;2023-02-28T08:07:37;100448.13;;;11.65;79.80
18527;BME280;9393;42.158;24.748;2023-02-28T08:10:42;100448.94;;;12.07;78.10
18527;BME280;9393;42.158;24.748;2023-02-28T08:13:46;100454.13;;;11.77;79.27
18527;BME280;9393;42.158;24.748;2023-02-28T08:16:51;100463.63;;;11.78;79.20
18527;BME280;9393;42.158;24.748;2023-02-28T08:19:54;100452.34;;;11.98;78.40
18527;BME280;9393;42.158;24.748;2023-02-28T08:22:58;100458.91;;;11.40;81.15
18527;BME280;9393;42.158;24.748;2023-02-28T08:26:03;100451.41;;;11.03;82.97
18527;BME280;9393;42.158;24.748;2023-02-28T08:29:07;100453.53;;;11.09;83.29
18527;BME280;9393;42.158;24.748;2023-02-28T08:32:12;100442.78;;;11.55;80.96
18527;BME280;9393;42.158;24.748;2023-02-28T08:35:30;100437.44;;;11.89;79.62
18527;BME280;9393;42.158;24.748;2023-02-28T08:38:34;100441.56;;;12.12;78.26
18527;BME280;9393;42.158;24.748;2023-02-28T08:41:38;100455.78;;;11.46;80.70
18527;BME280;9393;42.158;24.748;2023-02-28T08:44:43;100453.38;;;11.86;79.27
18527;BME280;9393;42.158;24.748;2023-02-28T08:47:48;100457.03;;;12.25;77.79
18527;BME280;9393;42.158;24.748;2023-02-28T08:50:55;100457.31;;;11.80;78.58
18527;BME280;9393;42.158;24.748;2023-02-28T08:54:09;100458.19;;;11.90;78.85
18527;BME280;9393;42.158;24.748;2023-02-28T08:57:14;100462.38;;;11.61;79.85
18527;BME280;9393;42.158;24.748;2023-02-28T09:00:19;100465.31;;;11.79;79.65
18527;BME280;9393;42.158;24.748;2023-02-28T09:03:25;100465.03;;;11.82;79.17
18527;BME280;9393;42.158;24.748;2023-02-28T09:06:29;100462.16;;;11.85;78.67
18527;BME280;9393;42.158;24.748;2023-02-28T09:09:34;100469.63;;;12.10;77.67
18527;BME280;9393;42.158;24.748;2023-02-28T09:12:38;100469.19;;;11.84;78.96
18527;BME280;9393;42.158;24.748;2023-02-28T09:15:42;100470.94;;;12.04;77.83
18527;BME280;9393;42.158;24.748;2023-02-28T09:18:47;100468.03;;;11.13;81.54
18527;BME280;9393;42.158;24.748;2023-02-28T09:21:51;100457.72;;;11.44;80.82
18527;BME280;9393;42.158;24.748;2023-02-28T09:24:55;100459.78;;;11.61;79.98
18527;BME280;9393;42.158;24.748;2023-02-28T09:27:59;100446.19;;;11.67;79.43
18527;BME280;9393;42.158;24.748;2023-02-28T09:31:03;100445.94;;;11.70;79.72
18527;BME280;9393;42.158;24.748;2023-02-28T09:34:08;100445.91;;;11.81;78.72
18527;BME280;9393;42.158;24.748;2023-02-28T09:37:12;100441.38;;;11.83;78.54
18527;BME280;9393;42.158;24.748;2023-02-28T09:40:17;100439.03;;;11.80;78.73
18527;BME280;9393;42.158;24.748;2023-02-28T09:43:23;100446.16;;;12.20;77.40
18527;BME280;9393;42.158;24.748;2023-02-28T09:46:32;100445.84;;;12.13;77.69
18527;BME280;9393;42.158;24.748;2023-02-28T09:49:41;100450.53;;;12.19;77.11
18527;BME280;9393;42.158;24.748;2023-02-28T09:52:46;100440.38;;;11.95;78.21
18527;BME280;9393;42.158;24.748;2023-02-28T09:55:55;100442.16;;;11.63;79.55
18527;BME280;9393;42.158;24.748;2023-02-28T09:59:04;100436.44;;;11.69;79.86
18527;BME280;9393;42.158;24.748;2023-02-28T10:02:29;100436.22;;;11.93;79.02
18527;BME280;9393;42.158;24.748;2023-02-28T10:05:49;100414.91;;;12.28;77.46
18527;BME280;9393;42.158;24.748;2023-02-28T10:08:58;100414.63;;;12.21;77.45
18527;BME280;9393;42.158;24.748;2023-02-28T10:12:05;100412.91;;;12.10;78.38
18527;BME280;9393;42.158;24.748;2023-02-28T10:15:13;100416.03;;;11.74;80.00
18527;BME280;9393;42.158;24.748;2023-02-28T10:18:22;100415.63;;;11.99;78.88
18527;BME280;9393;42.158;24.748;2023-02-28T10:21:33;100412.19;;;11.99;78.67
18527;BME280;9393;42.158;24.748;2023-02-28T10:24:41;100411.78;;;12.03;78.32
18527;BME280;9393;42.158;24.748;2023-02-28T10:27:45;100407.34;;;12.25;77.68
18527;BME280;9393;42.158;24.748;2023-02-28T10:30:51;100400.03;;;12.19;77.83
18527;BME280;9393;42.158;24.748;2023-02-28T10:33:56;100396.41;;;12.10;78.37
18527;BME280;9393;42.158;24.748;2023-02-28T10:37:01;100399.22;;;11.56;80.28
18527;BME280;9393;42.158;24.748;2023-02-28T10:40:27;100385.81;;;11.81;79.63
18527;BME280;9393;42.158;24.748;2023-02-28T10:43:31;100393.03;;;11.57;81.04
18527;BME280;9393;42.158;24.748;2023-02-28T10:46:35;100398.28;;;11.57;80.90
18527;BME280;9393;42.158;24.748;2023-02-28T10:49:47;100391.69;;;11.42;81.68
18527;BME280;9393;42.158;24.748;2023-02-28T10:52:53;100391.81;;;11.40;81.68
18527;BME280;9393;42.158;24.748;2023-02-28T10:55:59;100389.63;;;11.25;82.55
18527;BME280;9393;42.158;24.748;2023-02-28T10:59:27;100390.94;;;11.51;81.38
18527;BME280;9393;42.158;24.748;2023-02-28T11:02:33;100374.69;;;11.47;81.04
18527;BME280;9393;42.158;24.748;2023-02-28T11:05:38;100369.91;;;11.52;81.16
18527;BME280;9393;42.158;24.748;2023-02-28T11:08:47;100375.91;;;11.64;80.68
18527;BME280;9393;42.158;24.748;2023-02-28T11:11:51;100375.13;;;11.32;82.13
18527;BME280;9393;42.158;24.748;2023-02-28T11:14:57;100377.78;;;11.21;83.06
18527;BME280;9393;42.158;24.748;2023-02-28T11:18:19;100364.00;;;10.98;84.06
18527;BME280;9393;42.158;24.748;2023-02-28T11:21:27;100367.88;;;11.03;84.61
18527;BME280;9393;42.158;24.748;2023-02-28T11:24:37;100374.59;;;11.38;83.58
18527;BME280;9393;42.158;24.748;2023-02-28T11:27:47;100375.19;;;11.41;84.60
18527;BME280;9393;42.158;24.748;2023-02-28T11:31:05;100375.31;;;11.72;84.25
18527;BME280;9393;42.158;24.748;2023-02-28T11:34:24;100369.34;;;11.49;86.45
18527;BME280;9393;42.158;24.748;2023-02-28T11:37:30;100372.22;;;11.87;84.76
18527;BME280;9393;42.158;24.748;2023-02-28T11:40:43;100370.25;;;11.80;85.98
18527;BME280;9393;42.158;24.748;2023-02-28T11:44:03;100368.66;;;11.88;85.72
18527;BME280;9393;42.158;24.748;2023-02-28T11:47:12;100366.38;;;11.74;87.18
18527;BME280;9393;42.158;24.748;2023-02-28T11:50:27;100363.22;;;11.59;87.00
18527;BME280;9393;42.158;24.748;2023-02-28T11:53:46;100357.41;;;11.35;88.24
18527;BME280;9393;42.158;24.748;2023-02-28T11:56:57;100359.25;;;10.60;91.98
18527;BME280;9393;42.158;24.748;2023-02-28T12:00:11;100356.97;;;10.55;93.25
18527;BME280;9393;42.158;24.748;2023-02-28T12:03:28;100360.69;;;10.96;92.24
18527;BME280;9393;42.158;24.748;2023-02-28T12:06:40;100353.00;;;10.83;92.87
18527;BME280;9393;42.158;24.748;2023-02-28T12:09:55;100352.16;;;10.83;91.65
18527;BME280;9393;42.158;24.748;2023-02-28T12:13:11;100341.59;;;10.95;91.36
18527;BME280;9393;42.158;24.748;2023-02-28T12:16:32;100351.50;;;11.33;90.75
18527;BME280;9393;42.158;24.748;2023-02-28T12:19:44;100350.63;;;11.44;89.61
18527;BME280;9393;42.158;24.748;2023-02-28T12:22:57;100344.03;;;11.29;89.50
18527;BME280;9393;42.158;24.748;2023-02-28T12:26:09;100352.72;;;10.97;91.29
18527;BME280;9393;42.158;24.748;2023-02-28T12:29:21;100350.91;;;11.09;90.68
18527;BME280;9393;42.158;24.748;2023-02-28T12:32:30;100345.94;;;10.74;91.81
18527;BME280;9393;42.158;24.748;2023-02-28T12:35:41;100341.91;;;10.70;91.63
18527;BME280;9393;42.158;24.748;2023-02-28T12:38:51;100340.31;;;10.47;92.71
18527;BME280;9393;42.158;24.748;2023-02-28T12:42:03;100335.59;;;10.41;93.68
18527;BME280;9393;42.158;24.748;2023-02-28T12:45:17;100332.69;;;10.55;93.44
18527;BME280;9393;42.158;24.748;2023-02-28T12:48:27;100333.75;;;10.63;92.79
18527;BME280;9393;42.158;24.748;2023-02-28T12:51:34;100320.63;;;10.54;92.71
18527;BME280;9393;42.158;24.748;2023-02-28T12:54:46;100325.44;;;10.58;92.17
18527;BME280;9393;42.158;24.748;2023-02-28T12:58:01;100334.38;;;10.45;93.34
18527;BME280;9393;42.158;24.748;2023-02-28T13:01:39;100336.00;;;10.68;92.78
18527;BME280;9393;42.158;24.748;2023-02-28T13:05:17;100338.22;;;11.04;91.24
18527;BME280;9393;42.158;24.748;2023-02-28T13:09:00;100334.41;;;11.08;92.18
18527;BME280;9393;42.158;24.748;2023-02-28T13:12:13;100327.53;;;11.07;92.95
18527;BME280;9393;42.158;24.748;2023-02-28T13:15:20;100324.25;;;10.94;94.81
18527;BME280;9393;42.158;24.748;2023-02-28T13:18:33;100325.75;;;10.76;94.37
18527;BME280;9393;42.158;24.748;2023-02-28T13:21:44;100329.44;;;10.74;94.55
18527;BME280;9393;42.158;24.748;2023-02-28T13:24:51;100322.72;;;10.60;95.28
18527;BME280;9393;42.158;24.748;2023-02-28T13:27:55;100326.34;;;10.37;98.48
18527;BME280;9393;42.158;24.748;2023-02-28T13:31:04;100325.84;;;10.43;98.26
18527;BME280;9393;42.158;24.748;2023-02-28T13:34:15;100324.53;;;10.48;98.41
18527;BME280;9393;42.158;24.748;2023-02-28T13:37:37;100321.44;;;10.54;98.38
18527;BME280;9393;42.158;24.748;2023-02-28T13:40:45;100319.47;;;10.36;99.48
18527;BME280;9393;42.158;24.748;2023-02-28T13:44:10;100318.53;;;10.37;100.00
18527;BME280;9393;42.158;24.748;2023-02-28T13:47:28;100314.16;;;10.26;100.00
18527;BME280;9393;42.158;24.748;2023-02-28T13:50:36;100322.31;;;10.22;100.00
18527;BME280;9393;42.158;24.748;2023-02-28T13:53:58;100318.19;;;10.30;100.00
18527;BME280;9393;42.158;24.748;2023-02-28T13:57:12;100313.63;;;10.54;100.00
18527;BME280;9393;42.158;24.748;2023-02-28T14:00:28;100313.28;;;10.48;100.00
18527;BME280;9393;42.158;24.748;2023-02-28T14:03:51;100322.97;;;10.57;100.00
18527;BME280;9393;42.158;24.748;2023-02-28T14:07:02;100320.53;;;10.76;99.39
18527;BME280;9393;42.158;24.748;2023-02-28T14:10:08;100323.75;;;11.00;97.25
18527;BME280;9393;42.158;24.748;2023-02-28T14:13:41;100323.88;;;10.78;98.64
18527;BME280;9393;42.158;24.748;2023-02-28T14:16:49;100335.50;;;10.74;98.48
18527;BME280;9393;42.158;24.748;2023-02-28T14:19:53;100319.81;;;10.85;97.88
18527;BME280;9393;42.158;24.748;2023-02-28T14:23:04;100334.16;;;10.80;98.46
18527;BME280;9393;42.158;24.748;2023-02-28T14:26:19;100331.75;;;10.88;96.79
18527;BME280;9393;42.158;24.748;2023-02-28T14:29:43;100338.13;;;10.63;98.91
18527;BME280;9393;42.158;24.748;2023-02-28T14:33:01;100332.63;;;10.77;98.81
18527;BME280;9393;42.158;24.748;2023-02-28T14:36:18;100342.22;;;10.77;98.58
18527;BME280;9393;42.158;24.748;2023-02-28T14:39:25;100338.84;;;10.65;98.67
18527;BME280;9393;42.158;24.748;2023-02-28T14:42:31;100328.53;;;10.52;99.82
18527;BME280;9393;42.158;24.748;2023-02-28T14:45:36;100330.97;;;10.76;99.81
18527;BME280;9393;42.158;24.748;2023-02-28T14:48:40;100323.78;;;10.69;99.44
18527;BME280;9393;42.158;24.748;2023-02-28T14:51:44;100331.25;;;10.62;99.85
18527;BME280;9393;42.158;24.748;2023-02-28T14:54:53;100334.59;;;10.53;100.00
18527;BME280;9393;42.158;24.748;2023-02-28T14:58:00;100338.84;;;10.65;100.00
18527;BME280;9393;42.158;24.748;2023-02-28T15:01:05;100335.75;;;10.60;100.00
18527;BME280;9393;42.158;24.748;2023-02-28T15:04:26;100347.84;;;10.72;100.00
18527;BME280;9393;42.158;24.748;2023-02-28T15:07:31;100348.38;;;10.87;100.00
18527;BME280;9393;42.158;24.748;2023-02-28T15:10:36;100357.03;;;10.87;100.00
18527;BME280;9393;42.158;24.748;2023-02-28T15:13:44;100352.13;;;10.94;99.00
18527;BME280;9393;42.158;24.748;2023-02-28T15:16:52;100353.00;;;11.15;98.67
18527;BME280;9393;42.158;24.748;2023-02-28T15:20:00;100361.13;;;11.01;99.50
18527;BME280;9393;42.158;24.748;2023-02-28T15:23:04;100368.22;;;10.78;100.00
18527;BME280;9393;42.158;24.748;2023-02-28T15:26:12;100362.06;;;10.68;100.00
18527;BME280;9393;42.158;24.748;2023-02-28T15:29:20;100369.81;;;10.47;100.00
18527;BME280;9393;42.158;24.748;2023-02-28T15:32:27;100370.66;;;10.48;100.00
18527;BME280;9393;42.158;24.748;2023-02-28T15:35:32;100370.28;;;10.41;100.00
18527;BME280;9393;42.158;24.748;2023-02-28T15:38:37;100371.81;;;10.55;100.00
18527;BME280;9393;42.158;24.748;2023-02-28T15:41:42;100365.56;;;10.24;100.00
18527;BME280;9393;42.158;24.748;2023-02-28T15:44:46;100368.25;;;10.45;100.00
18527;BME280;9393;42.158;24.748;2023-02-28T15:47:50;100359.16;;;10.50;100.00
18527;BME280;9393;42.158;24.748;2023-02-28T15:50:57;100370.41;;;10.29;100.00
18527;BME280;9393;42.158;24.748;2023-02-28T15:54:06;100365.94;;;10.20;100.00
18527;BME280;9393;42.158;24.748;2023-02-28T15:57:14;100381.53;;;10.42;100.00
18527;BME280;9393;42.158;24.748;2023-02-28T16:00:22;100392.78;;;9.98;100.00
18527;BME280;9393;42.158;24.748;2023-02-28T16:03:27;100389.25;;;10.21;100.00
18527;BME280;9393;42.158;24.748;2023-02-28T16:06:39;100391.72;;;10.00;100.00
18527;BME280;9393;42.158;24.748;2023-02-28T16:09:44;100389.69;;;10.04;100.00
18527;BME280;9393;42.158;24.748;2023-02-28T16:12:51;100382.63;;;10.39;100.00
18527;BME280;9393;42.158;24.748;2023-02-28T16:15:56;100391.41;;;10.16;100.00
18527;BME280;9393;42.158;24.748;2023-02-28T16:19:01;100387.25;;;10.25;100.00
18527;BME280;9393;42.158;24.748;2023-02-28T16:22:05;100387.59;;;10.09;100.00
18527;BME280;9393;42.158;24.748;2023-02-28T16:25:11;100390.69;;;10.14;100.00